Time;durP1;ratioP1;P1;durP2;ratioP2;P2;SDS_P1;SDS_P2;PMS_P1;PMS_P2;Temp;Humidity;BMP_temperature;BMP_pressure;BME280_temperature;BME280_humidity;BME280_pressure;Samples;Min_cycle;Max_cycle;Signal;HPM_P1;HPM_P2
2022/05/03 00:01:36;;;;;;;;;;;;;;;17.06;100.00;97708.91;5076256;27;19925;-62
2022/05/03 00:04:06;;;;;;;;;;;;;;;17.02;100.00;97707.16;5069195;28;19933;-61
2022/05/03 00:06:41;;;;;;;;;;;;;;;17.10;100.00;97701.81;5076748;28;19959;-61
2022/05/03 00:09:08;;;;;;;;;;;;;;;17.11;100.00;97702.63;5079791;28;19974;-60
2022/05/03 00:11:39;;;;;;;;;;;;;;;17.03;100.00;97701.44;5079188;28;20660;-61
2022/05/03 00:14:07;;;;;;;;;;;;;;;17.06;100.00;97703.53;5108767;27;19929;-61
2022/05/03 00:16:35;;;;;;;;;;;;;;;17.04;100.00;97700.34;5076674;28;20001;-60
2022/05/03 00:19:05;;;;;;;;;;;;;;;17.03;100.00;97698.75;5079702;28;20602;-61
2022/05/03 00:21:32;;;;;;;;;;;;;;;17.03;100.00;97697.94;5079518;28;19927;-61
2022/05/03 00:23:59;;;;;;;;;;;;;;;16.99;100.00;97692.38;5076100;28;19984;-62
2022/05/03 00:26:27;;;;;;;;;;;;;;;16.94;100.00;97689.81;5076070;28;19928;-61
2022/05/03 00:28:54;;;;;;;;;;;;;;;16.97;100.00;97688.41;5079241;28;19997;-62
2022/05/03 00:31:21;;;;;;;;;;;;;;;16.97;100.00;97686.50;5079345;28;19924;-61
2022/05/03 00:33:49;;;;;;;;;;;;;;;16.97;100.00;97691.09;5077047;28;19967;-61
2022/05/03 00:36:16;;;;;;;;;;;;;;;16.91;100.00;97687.75;5076104;28;20009;-61
2022/05/03 00:38:42;;;;;;;;;;;;;;;16.93;100.00;97682.81;5077789;28;19964;-61
2022/05/03 00:41:09;;;;;;;;;;;;;;;16.89;100.00;97679.16;5079540;28;19932;-61
2022/05/03 00:43:45;;;;;;;;;;;;;;;16.92;100.00;97675.06;5111391;27;19924;-61
2022/05/03 00:46:14;;;;;;;;;;;;;;;16.92;100.00;97670.47;5076014;28;19925;-61
2022/05/03 00:48:48;;;;;;;;;;;;;;;16.90;100.00;97678.03;5077434;28;19925;-61
2022/05/03 00:51:18;;;;;;;;;;;;;;;16.91;100.00;97668.06;5079208;28;20408;-60
2022/05/03 00:53:53;;;;;;;;;;;;;;;16.91;100.00;97674.25;5077475;28;19921;-61
2022/05/03 00:56:29;;;;;;;;;;;;;;;16.92;100.00;97673.16;5075753;28;19993;-61
2022/05/03 00:59:02;;;;;;;;;;;;;;;16.88;100.00;97669.47;5067244;28;20012;-63
2022/05/03 01:01:32;;;;;;;;;;;;;;;16.84;100.00;97673.88;5074613;27;19931;-61
2022/05/03 01:04:04;;;;;;;;;;;;;;;16.82;100.00;97669.91;5060563;28;19935;-60
2022/05/03 01:06:35;;;;;;;;;;;;;;;16.76;100.00;97677.34;5057970;28;19925;-61
2022/05/03 01:09:04;;;;;;;;;;;;;;;16.79;100.00;97679.41;5067989;28;19925;-61
2022/05/03 01:11:35;;;;;;;;;;;;;;;16.73;100.00;97672.56;5075528;28;19985;-61
2022/05/03 01:14:06;;;;;;;;;;;;;;;16.71;100.00;97672.09;5106618;27;19993;-61
2022/05/03 01:16:34;;;;;;;;;;;;;;;16.65;100.00;97674.09;5075538;28;19988;-62
2022/05/03 01:19:05;;;;;;;;;;;;;;;16.64;100.00;97674.41;5078700;28;19955;-62
2022/05/03 01:21:49;;;;;;;;;;;;;;;16.67;100.00;97674.59;5078500;28;19960;-61
2022/05/03 01:24:28;;;;;;;;;;;;;;;16.61;100.00;97670.44;5074988;28;19921;-61
2022/05/03 01:27:07;;;;;;;;;;;;;;;16.54;100.00;97670.06;5078384;28;19921;-60
2022/05/03 01:29:35;;;;;;;;;;;;;;;16.57;100.00;97674.03;5077973;28;20008;-62
2022/05/03 01:32:02;;;;;;;;;;;;;;;16.56;100.00;97677.81;5075118;28;19924;-61
2022/05/03 01:34:30;;;;;;;;;;;;;;;16.55;100.00;97671.66;5057536;28;19996;-61
2022/05/03 01:37:14;;;;;;;;;;;;;;;16.55;100.00;97670.88;5067042;28;19925;-61
2022/05/03 01:39:49;;;;;;;;;;;;;;;16.54;100.00;97670.06;5076450;28;19956;-61
2022/05/03 01:42:21;;;;;;;;;;;;;;;16.48;100.00;97670.47;5095931;27;19987;-61
2022/05/03 01:44:52;;;;;;;;;;;;;;;16.38;100.00;97676.88;5065283;28;20011;-61
2022/05/03 01:47:24;;;;;;;;;;;;;;;16.43;100.00;97681.38;5078427;28;19983;-62
2022/05/03 01:52:50;;;;;;;;;;;;;;;16.35;100.00;97679.38;5076258;28;19925;-61
2022/05/03 01:55:25;;;;;;;;;;;;;;;16.42;100.00;97679.78;5078404;28;19925;-61
2022/05/03 01:58:00;;;;;;;;;;;;;;;16.38;100.00;97682.28;5075229;28;19936;-62
2022/05/03 02:00:28;;;;;;;;;;;;;;;16.40;100.00;97674.66;5074770;28;19984;-61
2022/05/03 02:02:57;;;;;;;;;;;;;;;16.40;100.00;97673.91;5077822;27;19925;-62
2022/05/03 02:05:31;;;;;;;;;;;;;;;16.38;100.00;97676.88;5078399;28;19925;-61
2022/05/03 02:07:58;;;;;;;;;;;;;;;16.40;100.00;97681.97;5066710;28;19950;-62
2022/05/03 02:10:42;;;;;;;;;;;;;;;16.27;100.00;97674.75;5074684;28;19981;-61
2022/05/03 02:13:20;;;;;;;;;;;;;;;16.13;100.00;97680.16;5100776;27;19956;-61
2022/05/03 02:15:49;;;;;;;;;;;;;;;16.15;100.00;97673.38;5079350;28;19974;-62
2022/05/03 02:18:22;;;;;;;;;;;;;;;16.18;100.00;97672.75;5078042;28;19925;-62
2022/05/03 02:21:03;;;;;;;;;;;;;;;16.06;100.00;97669.81;5080381;28;20391;-61
2022/05/03 02:23:36;;;;;;;;;;;;;;;16.04;100.00;97674.72;5081572;28;19920;-62
2022/05/03 02:26:14;;;;;;;;;;;;;;;16.03;100.00;97675.78;5070513;28;19980;-61
2022/05/03 02:28:42;;;;;;;;;;;;;;;15.99;100.00;97677.53;5071442;28;19984;-61
2022/05/03 02:31:13;;;;;;;;;;;;;;;16.07;100.00;97674.09;5081402;28;19931;-62
2022/05/03 02:33:44;;;;;;;;;;;;;;;16.06;100.00;97675.19;5080010;28;19931;-62
2022/05/03 02:36:15;;;;;;;;;;;;;;;16.09;100.00;97669.19;5077942;28;20315;-60
2022/05/03 02:38:47;;;;;;;;;;;;;;;16.02;100.00;97666.16;5079179;28;19932;-61
2022/05/03 02:41:14;;;;;;;;;;;;;;;16.04;100.00;97660.44;5081253;28;19988;-61
2022/05/03 02:43:41;;;;;;;;;;;;;;;16.00;100.00;97665.63;5112480;27;19924;-61
2022/05/03 02:46:18;;;;;;;;;;;;;;;16.04;100.00;97663.94;5077642;28;19957;-61
2022/05/03 02:48:48;;;;;;;;;;;;;;;16.07;100.00;97657.94;5079310;28;19929;-61
2022/05/03 02:51:15;;;;;;;;;;;;;;;16.05;100.00;97662.03;5081074;28;19920;-62
2022/05/03 02:53:44;;;;;;;;;;;;;;;16.07;100.00;97657.94;5079214;28;19925;-61
2022/05/03 02:56:17;;;;;;;;;;;;;;;15.90;100.00;97657.00;5077417;28;19924;-61
2022/05/03 02:58:47;;;;;;;;;;;;;;;15.93;100.00;97659.88;5079077;28;19929;-62
2022/05/03 03:04:16;;;;;;;;;;;;;;;15.91;100.00;97659.38;5071409;28;19955;-61
2022/05/03 03:06:45;;;;;;;;;;;;;;;15.87;100.00;97655.72;5075352;28;21215;-61
2022/05/03 03:09:16;;;;;;;;;;;;;;;15.90;100.00;97660.50;5075137;28;19929;-62
2022/05/03 03:11:52;;;;;;;;;;;;;;;15.90;100.00;97660.50;5079079;28;19996;-62
2022/05/03 03:14:21;;;;;;;;;;;;;;;15.81;100.00;97656.13;5072565;28;19925;-61
2022/05/03 03:16:53;;;;;;;;;;;;;;;15.81;100.00;97659.63;5079640;28;19997;-61
2022/05/03 03:19:26;;;;;;;;;;;;;;;15.82;100.00;97657.69;5080885;28;19930;-61
2022/05/03 03:21:55;;;;;;;;;;;;;;;15.84;100.00;97661.69;5077750;28;20023;-61
2022/05/03 03:24:22;;;;;;;;;;;;;;;15.87;100.00;97663.78;5077228;28;19924;-61
2022/05/03 03:26:49;;;;;;;;;;;;;;;15.83;100.00;97656.59;5079588;28;19947;-60
2022/05/03 03:29:16;;;;;;;;;;;;;;;15.63;100.00;97660.50;5080497;28;19931;-61
2022/05/03 03:31:43;;;;;;;;;;;;;;;15.63;100.00;97657.81;5078977;28;19963;-61
2022/05/03 03:34:11;;;;;;;;;;;;;;;15.59;100.00;97654.97;5076948;28;19957;-61
2022/05/03 03:36:38;;;;;;;;;;;;;;;15.62;100.00;97664.31;5077859;28;19971;-61
2022/05/03 03:39:04;;;;;;;;;;;;;;;15.70;100.00;97665.50;5080259;28;19934;-61
2022/05/03 03:41:31;;;;;;;;;;;;;;;15.48;100.00;97663.53;5080265;28;20012;-61
2022/05/03 03:43:57;;;;;;;;;;;;;;;15.28;100.00;97658.53;5107630;27;20062;-61
2022/05/03 03:46:23;;;;;;;;;;;;;;;15.09;100.00;97662.13;5076674;28;19981;-61
2022/05/03 03:48:50;;;;;;;;;;;;;;;15.07;100.00;97663.50;5079029;28;19935;-60
2022/05/03 03:51:19;;;;;;;;;;;;;;;15.07;100.00;97671.56;5080272;28;19985;-61
2022/05/03 03:53:45;;;;;;;;;;;;;;;15.07;100.00;97666.19;5078028;28;19935;-64
2022/05/03 03:56:12;;;;;;;;;;;;;;;15.24;100.00;97668.28;5076677;28;19964;-62
2022/05/03 03:58:39;;;;;;;;;;;;;;;15.39;100.00;97671.47;5077434;28;19943;-62
2022/05/03 04:01:05;;;;;;;;;;;;;;;15.51;100.00;97668.31;5079815;28;19935;-61
2022/05/03 04:03:32;;;;;;;;;;;;;;;15.62;100.00;97667.81;5079527;28;19931;-61
2022/05/03 04:05:59;;;;;;;;;;;;;;;15.65;100.00;97666.41;5076624;28;19992;-62
2022/05/03 04:08:26;;;;;;;;;;;;;;;15.63;100.00;97665.91;5076631;28;20563;-61
2022/05/03 04:10:53;;;;;;;;;;;;;;;15.65;100.00;97666.41;5079359;28;19947;-62
2022/05/03 04:13:19;;;;;;;;;;;;;;;15.64;100.00;97665.63;5112641;27;19979;-61
2022/05/03 04:15:45;;;;;;;;;;;;;;;15.72;100.00;97664.09;5077607;28;19931;-61
2022/05/03 04:18:11;;;;;;;;;;;;;;;15.72;100.00;97674.84;5076205;28;19925;-61
2022/05/03 04:20:38;;;;;;;;;;;;;;;15.69;100.00;97663.91;5076910;28;19931;-61
2022/05/03 04:23:04;;;;;;;;;;;;;;;15.69;100.00;97672.00;5079567;28;19992;-61
2022/05/03 04:25:32;;;;;;;;;;;;;;;15.66;100.00;97665.28;5079573;28;19925;-61
2022/05/03 04:27:59;;;;;;;;;;;;;;;15.57;100.00;97667.91;5068352;28;19946;-61
2022/05/03 04:30:25;;;;;;;;;;;;;;;15.25;100.00;97670.69;5076468;28;20380;-60
2022/05/03 04:32:51;;;;;;;;;;;;;;;14.87;100.00;97678.09;5078897;28;19936;-62
2022/05/03 04:35:18;;;;;;;;;;;;;;;15.05;100.00;97673.75;5079506;28;19963;-60
2022/05/03 04:37:44;;;;;;;;;;;;;;;15.18;100.00;97675.66;5077554;28;19924;-61
2022/05/03 04:40:11;;;;;;;;;;;;;;;15.29;100.00;97678.97;5076179;28;19925;-61
2022/05/03 04:42:38;;;;;;;;;;;;;;;15.09;100.00;97672.06;5109641;27;19923;-61
2022/05/03 04:45:05;;;;;;;;;;;;;;;15.17;100.00;97681.31;5079227;28;20052;-61
2022/05/03 04:47:31;;;;;;;;;;;;;;;15.28;100.00;97680.06;5079107;28;19931;-62
2022/05/03 04:49:57;;;;;;;;;;;;;;;15.22;100.00;97681.25;5075694;28;19921;-60
2022/05/03 04:52:24;;;;;;;;;;;;;;;15.02;100.00;97677.84;5075657;28;19925;-61
2022/05/03 04:54:50;;;;;;;;;;;;;;;14.93;100.00;97687.69;5078255;28;19925;-61
2022/05/03 04:57:16;;;;;;;;;;;;;;;14.87;100.00;97680.00;5079210;28;19992;-61
2022/05/03 04:59:45;;;;;;;;;;;;;;;15.06;100.00;97681.53;5077526;28;19924;-61
2022/05/03 05:02:11;;;;;;;;;;;;;;;15.10;100.00;97685.22;5075298;28;19929;-60
2022/05/03 05:04:37;;;;;;;;;;;;;;;15.17;100.00;97673.25;5076409;28;19932;-60
2022/05/03 05:07:04;;;;;;;;;;;;;;;15.28;100.00;97680.06;5078879;28;20325;-61
2022/05/03 05:09:31;;;;;;;;;;;;;;;15.45;100.00;97680.25;5078797;28;19950;-60
2022/05/03 05:11:57;;;;;;;;;;;;;;;15.36;100.00;97682.03;5075265;27;19929;-61
2022/05/03 05:14:24;;;;;;;;;;;;;;;15.45;100.00;97686.44;5098854;27;19987;-60
2022/05/03 05:16:51;;;;;;;;;;;;;;;15.54;100.00;97691.94;5077897;28;19925;-61
2022/05/03 05:19:18;;;;;;;;;;;;;;;15.57;100.00;97688.63;5078640;28;19948;-60
2022/05/03 05:21:44;;;;;;;;;;;;;;;15.49;100.00;97698.22;5076694;28;20048;-61
2022/05/03 05:24:11;;;;;;;;;;;;;;;15.12;100.00;97696.47;5074872;28;20004;-61
2022/05/03 05:26:38;;;;;;;;;;;;;;;15.06;100.00;97691.50;5076101;28;20448;-61
2022/05/03 05:29:04;;;;;;;;;;;;;;;15.17;100.00;97705.53;5078457;28;20001;-61
2022/05/03 05:31:30;;;;;;;;;;;;;;;15.06;100.00;97696.88;5078519;28;19987;-61
2022/05/03 05:33:58;;;;;;;;;;;;;;;14.69;100.00;97703.16;5066685;28;19924;-61
2022/05/03 05:36:24;;;;;;;;;;;;;;;14.32;100.00;97708.56;5075182;28;20474;-61
2022/05/03 05:38:51;;;;;;;;;;;;;;;14.22;100.00;97706.81;5077585;28;19999;-61
2022/05/03 05:41:17;;;;;;;;;;;;;;;14.15;100.00;97698.31;5078429;28;19995;-61
2022/05/03 05:43:43;;;;;;;;;;;;;;;14.22;100.00;97706.00;5109751;27;19928;-62
2022/05/03 05:46:10;;;;;;;;;;;;;;;14.58;100.00;97701.72;5074882;28;19925;-63
2022/05/03 05:48:38;;;;;;;;;;;;;;;15.04;100.00;97699.84;5077273;28;19973;-61
2022/05/03 05:51:06;;;;;;;;;;;;;;;15.33;100.00;97704.97;5081894;28;19984;-62
2022/05/03 05:53:31;;;;;;;;;;;;;;;15.59;100.00;97699.91;5081443;28;19924;-61
2022/05/03 05:55:58;;;;;;;;;;;;;;;15.73;100.00;97700.69;5078353;28;19925;-62
2022/05/03 05:58:24;;;;;;;;;;;;;;;15.87;100.00;97706.88;5078385;28;19931;-60
2022/05/03 06:00:50;;;;;;;;;;;;;;;15.93;100.00;97702.19;5080879;28;19924;-62
2022/05/03 06:03:19;;;;;;;;;;;;;;;16.06;100.00;97712.91;5081388;28;20006;-61
2022/05/03 06:05:45;;;;;;;;;;;;;;;16.26;100.00;97706.28;5079801;28;19928;-61
2022/05/03 06:08:13;;;;;;;;;;;;;;;16.48;100.00;97719.78;5078233;28;19925;-61
2022/05/03 06:10:39;;;;;;;;;;;;;;;16.71;100.00;97709.84;5079190;28;19963;-62
2022/05/03 06:13:06;;;;;;;;;;;;;;;16.83;100.00;97711.97;5114787;27;19933;-62
2022/05/03 06:15:32;;;;;;;;;;;;;;;16.99;100.00;97711.25;5081278;28;19935;-62
2022/05/03 06:17:58;;;;;;;;;;;;;;;16.45;100.00;97717.69;5077863;28;19925;-60
2022/05/03 06:20:25;;;;;;;;;;;;;;;16.59;100.00;97714.97;5078125;28;19925;-61
2022/05/03 06:22:51;;;;;;;;;;;;;;;16.73;100.00;97715.72;5080798;28;19934;-61
2022/05/03 06:25:19;;;;;;;;;;;;;;;17.04;100.00;97716.53;5081347;28;19925;-61
2022/05/03 06:27:45;;;;;;;;;;;;;;;17.30;100.00;97710.47;5079210;28;19991;-62
2022/05/03 06:30:12;;;;;;;;;;;;;;;17.33;100.00;97712.56;5077902;28;19992;-61
2022/05/03 06:32:40;;;;;;;;;;;;;;;17.28;100.00;97716.97;5078795;28;19992;-62
2022/05/03 06:35:07;;;;;;;;;;;;;;;17.52;100.00;97715.78;5080880;28;19928;-62
2022/05/03 06:37:36;;;;;;;;;;;;;;;17.44;100.00;97720.06;5080636;28;19925;-62
2022/05/03 06:40:02;;;;;;;;;;;;;;;17.69;100.00;97716.69;5077644;28;19954;-63
2022/05/03 06:42:34;;;;;;;;;;;;;;;17.92;100.00;97713.91;5108838;27;19990;-62
2022/05/03 06:45:00;;;;;;;;;;;;;;;17.80;100.00;97717.19;5069869;28;19967;-61
2022/05/03 06:47:27;;;;;;;;;;;;;;;18.02;100.00;97719.78;5077637;28;19929;-61
2022/05/03 06:49:54;;;;;;;;;;;;;;;18.16;100.00;97723.16;5080639;28;19925;-61
2022/05/03 06:52:20;;;;;;;;;;;;;;;18.26;100.00;97724.72;5080941;28;19967;-61
2022/05/03 06:54:47;;;;;;;;;;;;;;;18.38;100.00;97716.00;5078576;28;19928;-62
2022/05/03 06:57:13;;;;;;;;;;;;;;;18.47;100.00;97719.50;5077398;28;19996;-61
2022/05/03 06:59:41;;;;;;;;;;;;;;;18.51;100.00;97725.88;5077886;28;20002;-61
2022/05/03 07:02:08;;;;;;;;;;;;;;;18.60;100.00;97729.41;5080447;27;20307;-61
2022/05/03 07:04:35;;;;;;;;;;;;;;;18.68;100.00;97720.47;5080160;28;19925;-61
2022/05/03 07:07:01;;;;;;;;;;;;;;;18.73;100.00;97731.13;5059145;28;20506;-61
2022/05/03 07:09:27;;;;;;;;;;;;;;;18.82;100.00;97737.31;5077130;28;19944;-60
2022/05/03 07:11:53;;;;;;;;;;;;;;;18.91;100.00;97735.41;5084835;27;19924;-61
2022/05/03 07:14:22;;;;;;;;;;;;;;;18.96;100.00;97727.13;5103098;27;19925;-62
2022/05/03 07:16:49;;;;;;;;;;;;;;;18.79;100.00;97730.66;5079264;28;19925;-62
2022/05/03 07:24:45;;;;;;;;;;;;;;;18.33;100.00;97731.28;5078543;28;19946;-61
2022/05/03 07:27:13;;;;;;;;;;;;;;;18.28;100.00;97734.13;5080331;28;19925;-62
2022/05/03 07:29:39;;;;;;;;;;;;;;;18.43;100.00;97734.78;5079018;28;19924;-61
2022/05/03 07:32:07;;;;;;;;;;;;;;;18.48;100.00;97729.19;5076724;28;20019;-61
2022/05/03 07:34:33;;;;;;;;;;;;;;;18.21;100.00;97733.81;5059324;28;19925;-62
2022/05/03 07:36:59;;;;;;;;;;;;;;;18.04;100.00;97725.66;5080087;28;19988;-62
2022/05/03 07:39:26;;;;;;;;;;;;;;;18.05;100.00;97729.97;5080146;28;19956;-62
2022/05/03 07:41:53;;;;;;;;;;;;;;;17.79;100.00;97727.19;5081830;27;19929;-62
2022/05/03 07:44:20;;;;;;;;;;;;;;;17.94;100.00;97736.78;5103289;27;19925;-61
2022/05/03 07:46:46;;;;;;;;;;;;;;;18.02;100.00;97741.41;5078533;28;19942;-61
2022/05/03 07:49:14;;;;;;;;;;;;;;;18.03;100.00;97726.00;5080235;28;20335;-62
2022/05/03 07:51:40;;;;;;;;;;;;;;;18.02;100.00;97737.91;5078893;28;19925;-62
2022/05/03 07:54:06;;;;;;;;;;;;;;;18.34;100.00;97732.88;5076346;28;19939;-61
2022/05/03 07:56:33;;;;;;;;;;;;;;;18.42;100.00;97735.88;5076785;28;19984;-61
2022/05/03 07:58:59;;;;;;;;;;;;;;;18.35;100.00;97733.66;5079980;28;19925;-62
2022/05/03 08:01:25;;;;;;;;;;;;;;;18.62;100.00;97738.00;5079703;28;20107;-61
2022/05/03 08:03:52;;;;;;;;;;;;;;;18.34;98.87;97730.16;5076337;27;20015;-62
2022/05/03 08:06:19;;;;;;;;;;;;;;;18.20;98.45;97731.41;5076201;28;19988;-61
2022/05/03 08:08:46;;;;;;;;;;;;;;;17.83;100.00;97735.47;5078092;28;19925;-61
2022/05/03 08:11:12;;;;;;;;;;;;;;;17.86;100.00;97732.13;5078657;28;19928;-62
2022/05/03 08:13:38;;;;;;;;;;;;;;;18.00;100.00;97740.94;5112014;27;19935;-62
2022/05/03 08:16:16;;;;;;;;;;;;;;;18.82;98.48;97735.41;5076287;28;19992;-62
2022/05/03 08:18:42;;;;;;;;;;;;;;;18.68;93.55;97731.31;5077388;28;19935;-61
2022/05/03 08:21:11;;;;;;;;;;;;;;;18.44;97.03;97737.16;5079473;28;19928;-61
2022/05/03 08:23:38;;;;;;;;;;;;;;;18.79;98.87;97740.66;5078800;28;19925;-61
2022/05/03 08:26:05;;;;;;;;;;;;;;;19.12;96.29;97739.03;5075844;28;19935;-61
2022/05/03 08:28:31;;;;;;;;;;;;;;;18.96;93.63;97745.28;5076204;28;19921;-61
2022/05/03 08:30:58;;;;;;;;;;;;;;;18.80;91.33;97747.69;5067787;28;19921;-61
2022/05/03 08:33:24;;;;;;;;;;;;;;;18.94;90.44;97742.88;5076100;28;19992;-61
2022/05/03 08:35:50;;;;;;;;;;;;;;;18.88;86.51;97741.44;5060797;28;19925;-62
2022/05/03 08:43:46;;;;;;;;;;;;;;;19.25;90.34;97740.75;5111077;27;19924;-61
2022/05/03 08:46:12;;;;;;;;;;;;;;;19.35;87.79;97745.81;5076067;28;19925;-62
2022/05/03 08:48:41;;;;;;;;;;;;;;;19.54;86.58;97752.78;5076747;28;19988;-61
2022/05/03 08:51:07;;;;;;;;;;;;;;;19.30;83.44;97748.72;5079087;28;19949;-62
2022/05/03 08:53:34;;;;;;;;;;;;;;;19.11;81.76;97750.97;5078808;28;19984;-62
2022/05/03 08:56:02;;;;;;;;;;;;;;;19.13;86.81;97745.22;5075806;28;19931;-61
2022/05/03 08:58:29;;;;;;;;;;;;;;;19.29;88.29;97747.09;5075647;28;19964;-61
2022/05/03 09:00:55;;;;;;;;;;;;;;;19.39;88.36;97740.56;5078614;28;19980;-61
2022/05/03 09:03:21;;;;;;;;;;;;;;;19.46;86.78;97748.22;5078795;28;19924;-61
2022/05/03 09:05:48;;;;;;;;;;;;;;;19.64;83.24;97752.44;5076677;28;20460;-62
2022/05/03 09:08:21;;;;;;;;;;;;;;;19.63;82.90;97748.13;5075536;28;19925;-61
2022/05/03 09:10:47;;;;;;;;;;;;;;;19.68;82.21;97747.97;5077476;28;19949;-62
2022/05/03 09:13:17;;;;;;;;;;;;;;;19.82;83.50;97738.50;5112285;27;19988;-61
2022/05/03 09:15:43;;;;;;;;;;;;;;;19.85;82.74;97753.28;5076970;28;19931;-61
2022/05/03 09:18:10;;;;;;;;;;;;;;;19.80;79.80;97745.34;5075428;28;19928;-61
2022/05/03 09:26:12;;;;;;;;;;;;;;;19.86;81.89;97750.28;5066570;28;19925;-61
2022/05/03 09:28:45;;;;;;;;;;;;;;;20.00;80.35;97739.19;5079574;28;19925;-61
2022/05/03 09:31:11;;;;;;;;;;;;;;;20.09;80.63;97741.84;5082305;28;19920;-61
2022/05/03 09:33:38;;;;;;;;;;;;;;;19.95;79.41;97736.66;5081490;28;19935;-62
2022/05/03 09:36:08;;;;;;;;;;;;;;;20.04;78.27;97740.13;5078957;28;19925;-62
2022/05/03 09:38:43;;;;;;;;;;;;;;;20.05;80.78;97736.28;5079214;27;19925;-61
2022/05/03 09:41:14;;;;;;;;;;;;;;;20.31;81.77;97730.72;5082044;28;19927;-61
2022/05/03 09:44:00;;;;;;;;;;;;;;;20.55;80.06;97727.34;5114420;27;19925;-61
2022/05/03 09:46:27;;;;;;;;;;;;;;;20.48;79.38;97733.31;5078697;28;20506;-61
2022/05/03 09:48:55;;;;;;;;;;;;;;;20.52;79.00;97728.03;5081521;28;19931;-62
2022/05/03 09:51:22;;;;;;;;;;;;;;;20.49;73.58;97728.69;5082065;28;19924;-61
2022/05/03 09:53:55;;;;;;;;;;;;;;;20.54;77.32;97731.19;5079779;28;19980;-62
2022/05/03 09:56:25;;;;;;;;;;;;;;;20.31;67.82;97728.00;5078701;28;19992;-61
2022/05/03 09:58:55;;;;;;;;;;;;;;;20.16;70.78;97723.94;5081286;28;19928;-62
2022/05/03 10:01:22;;;;;;;;;;;;;;;20.17;66.93;97722.81;5081937;28;19925;-61
2022/05/03 10:03:50;;;;;;;;;;;;;;;20.10;65.01;97722.53;5079440;27;20000;-62
2022/05/03 10:06:17;;;;;;;;;;;;;;;20.17;65.93;97722.81;5078566;28;19942;-62
2022/05/03 10:08:44;;;;;;;;;;;;;;;20.09;68.11;97715.53;5080002;28;19925;-61
2022/05/03 10:11:11;;;;;;;;;;;;;;;20.06;69.02;97710.75;5081891;28;19926;-62
2022/05/03 10:13:37;;;;;;;;;;;;;;;20.41;74.59;97724.91;5114704;27;19937;-61
2022/05/03 10:21:37;;;;;;;;;;;;;;;20.48;65.68;97711.63;5080988;28;19949;-62
2022/05/03 10:24:05;;;;;;;;;;;;;;;20.76;70.42;97711.84;5077902;28;19925;-61
2022/05/03 10:26:46;;;;;;;;;;;;;;;20.51;65.50;97710.16;5077933;28;20365;-62
2022/05/03 10:29:13;;;;;;;;;;;;;;;20.55;67.00;97705.66;5073848;28;19925;-62
2022/05/03 10:31:54;;;;;;;;;;;;;;;20.52;69.74;97703.59;5078994;28;19925;-61
2022/05/03 10:34:39;;;;;;;;;;;;;;;20.49;70.95;97696.13;5080508;28;19928;-62
2022/05/03 10:37:06;;;;;;;;;;;;;;;20.42;68.11;97702.84;5070640;28;20011;-61
2022/05/03 10:39:33;;;;;;;;;;;;;;;20.35;66.80;97696.41;5077907;28;19921;-61
2022/05/03 10:42:02;;;;;;;;;;;;;;;20.33;70.55;97694.00;5088968;27;20201;-62
2022/05/03 10:44:55;;;;;;;;;;;;;;;20.24;69.18;97690.53;5098640;27;19921;-61
2022/05/03 10:47:39;;;;;;;;;;;;;;;20.42;74.18;97686.59;5072714;28;20287;-62
2022/05/03 10:50:19;;;;;;;;;;;;;;;20.71;73.14;97693.84;5070252;28;19924;-61
2022/05/03 10:53:07;;;;;;;;;;;;;;;20.72;73.77;97679.16;5079385;28;19964;-62
2022/05/03 10:55:35;;;;;;;;;;;;;;;20.81;72.34;97681.78;5080298;28;20095;-62
2022/05/03 10:58:18;;;;;;;;;;;;;;;20.90;72.37;97677.84;5077303;28;19988;-62
2022/05/03 11:01:04;;;;;;;;;;;;;;;21.25;70.17;97683.72;5078982;28;19931;-61
2022/05/03 11:03:30;;;;;;;;;;;;;;;21.46;64.60;97680.91;5080620;27;19924;-62
2022/05/03 11:06:15;;;;;;;;;;;;;;;21.22;66.32;97675.47;5077097;28;19937;-61
2022/05/03 11:08:57;;;;;;;;;;;;;;;21.44;68.62;97672.31;5078736;28;19968;-63
2022/05/03 11:11:39;;;;;;;;;;;;;;;21.77;66.90;97653.16;5080231;28;19931;-61
2022/05/03 11:14:27;;;;;;;;;;;;;;;21.91;66.11;97657.13;5109445;27;19960;-61
2022/05/03 11:17:06;;;;;;;;;;;;;;;21.74;64.45;97660.06;5079709;28;19928;-61
2022/05/03 11:19:33;;;;;;;;;;;;;;;21.55;64.69;97646.25;5080361;28;20335;-61
2022/05/03 11:21:59;;;;;;;;;;;;;;;21.29;65.44;97654.75;5068821;28;19924;-61
2022/05/03 11:24:26;;;;;;;;;;;;;;;21.21;63.14;97652.94;5077230;28;19924;-62
2022/05/03 11:26:54;;;;;;;;;;;;;;;20.90;67.06;97647.19;5079695;28;20624;-62
2022/05/03 11:29:27;;;;;;;;;;;;;;;21.01;63.43;97648.38;5080532;28;19928;-62
2022/05/03 11:31:53;;;;;;;;;;;;;;;21.01;68.47;97648.38;5059455;28;19925;-62
2022/05/03 11:34:20;;;;;;;;;;;;;;;21.10;68.91;97646.38;5077003;28;19988;-61
2022/05/03 11:36:47;;;;;;;;;;;;;;;20.91;71.50;97635.22;5078610;28;19935;-61
2022/05/03 11:39:14;;;;;;;;;;;;;;;20.75;74.67;97639.69;5080499;28;19996;-62
2022/05/03 11:41:42;;;;;;;;;;;;;;;20.80;72.68;97631.31;5078934;28;19936;-61
2022/05/03 11:44:08;;;;;;;;;;;;;;;20.74;71.68;97632.66;5110340;27;19921;-60
2022/05/03 11:46:37;;;;;;;;;;;;;;;20.65;70.70;97637.38;5075618;28;19956;-61
2022/05/03 11:49:04;;;;;;;;;;;;;;;20.52;71.73;97633.84;5079990;28;19924;-61
2022/05/03 11:57:06;;;;;;;;;;;;;;;20.42;64.37;97637.00;5051834;28;19986;-62
2022/05/03 11:59:33;;;;;;;;;;;;;;;20.39;60.35;97627.56;5076281;28;19935;-62
2022/05/03 12:02:13;;;;;;;;;;;;;;;20.33;58.89;97630.84;5079545;28;19950;-61
2022/05/03 12:04:40;;;;;;;;;;;;;;;20.38;60.48;97620.59;5078833;28;19925;-62
2022/05/03 12:07:06;;;;;;;;;;;;;;;20.45;61.36;97626.28;5076366;28;19988;-62
2022/05/03 12:09:35;;;;;;;;;;;;;;;20.52;62.38;97627.66;5076197;28;19921;-61
2022/05/03 12:14:42;;;;;;;;;;;;;;;20.49;63.28;97625.59;5075039;28;19925;-60
2022/05/03 12:17:09;;;;;;;;;;;;;;;20.38;61.28;97623.28;5079678;28;19924;-61
2022/05/03 12:19:37;;;;;;;;;;;;;;;20.28;63.69;97615.56;5079219;28;19983;-59
2022/05/03 12:22:12;;;;;;;;;;;;;;;20.33;65.91;97612.63;5076011;28;19997;-61
2022/05/03 12:24:41;;;;;;;;;;;;;;;20.35;66.64;97609.59;5076664;28;19928;-60
2022/05/03 12:27:11;;;;;;;;;;;;;;;20.44;67.72;97613.03;5079351;28;19970;-62
2022/05/03 12:29:42;;;;;;;;;;;;;;;20.64;65.22;97605.97;5078681;28;19924;-60
2022/05/03 12:32:12;;;;;;;;;;;;;;;20.82;62.84;97601.94;5076046;28;19925;-61
2022/05/03 12:34:41;;;;;;;;;;;;;;;20.87;64.83;97604.44;5076578;28;19925;-61
2022/05/03 12:37:08;;;;;;;;;;;;;;;21.15;63.15;97605.41;5079171;28;19920;-61
2022/05/03 12:39:35;;;;;;;;;;;;;;;21.26;61.00;97595.66;5061304;28;19931;-61
2022/05/03 12:42:02;;;;;;;;;;;;;;;21.39;59.11;97591.81;5087300;27;19928;-61
2022/05/03 12:44:29;;;;;;;;;;;;;;;21.47;58.95;97588.22;5096421;27;19928;-61
2022/05/03 12:47:02;;;;;;;;;;;;;;;21.64;54.39;97592.59;5078846;28;19925;-61
2022/05/03 12:49:28;;;;;;;;;;;;;;;21.60;55.88;97593.63;5079161;28;19924;-62
2022/05/03 12:51:55;;;;;;;;;;;;;;;21.67;56.57;97582.94;5058198;28;19988;-61
2022/05/03 12:54:22;;;;;;;;;;;;;;;21.78;55.79;97584.88;5075741;28;19992;-62
2022/05/03 12:59:32;;;;;;;;;;;;;;;21.38;54.64;97582.09;5078929;28;19924;-62
2022/05/03 13:01:58;;;;;;;;;;;;;;;21.33;55.51;97582.31;5066747;27;20044;-61
2022/05/03 13:04:25;;;;;;;;;;;;;;;21.50;51.40;97567.72;5075550;28;19952;-62
2022/05/03 13:06:52;;;;;;;;;;;;;;;21.37;50.58;97583.22;5078165;28;19924;-61
2022/05/03 13:09:20;;;;;;;;;;;;;;;21.26;52.41;97567.72;5079008;28;19960;-61
2022/05/03 13:11:47;;;;;;;;;;;;;;;21.53;53.05;97575.97;5077565;27;19928;-62
2022/05/03 13:14:14;;;;;;;;;;;;;;;21.54;49.79;97574.81;5107509;27;19929;-62
2022/05/03 13:16:40;;;;;;;;;;;;;;;21.49;49.95;97571.53;5076331;28;19925;-61
2022/05/03 13:19:06;;;;;;;;;;;;;;;21.63;50.67;97566.56;5078548;28;19997;-61
2022/05/03 13:21:35;;;;;;;;;;;;;;;21.80;49.66;97565.47;5078572;28;19931;-62
2022/05/03 13:24:02;;;;;;;;;;;;;;;21.93;48.06;97561.63;5075118;28;19968;-61
2022/05/03 13:26:31;;;;;;;;;;;;;;;21.74;47.01;97561.44;5075145;28;19925;-62
2022/05/03 13:28:58;;;;;;;;;;;;;;;21.77;49.53;97558.03;5066727;28;19925;-62